sensor_id;sensor_type;location;lat;lon;timestamp;P1;durP1;ratioP1;P2;durP2;ratioP2
71959;SDS011;59832;51.146;14.024;2023-07-09T04:02:32;7.95;;;6.03;;
71959;SDS011;59832;51.146;14.024;2023-07-09T04:04:58;9.73;;;5.85;;
71959;SDS011;59832;51.146;14.024;2023-07-09T04:07:24;16.10;;;5.90;;
71959;SDS011;59832;51.146;14.024;2023-07-09T04:09:51;8.20;;;5.78;;
71959;SDS011;59832;51.146;14.024;2023-07-09T04:12:17;10.80;;;6.07;;
71959;SDS011;59832;51.146;14.024;2023-07-09T04:14:44;7.30;;;5.70;;
71959;SDS011;59832;51.146;14.024;2023-07-09T04:17:10;6.10;;;5.50;;
71959;SDS011;59832;51.146;14.024;2023-07-09T04:19:37;6.70;;;5.90;;
71959;SDS011;59832;51.146;14.024;2023-07-09T04:22:03;8.75;;;5.85;;
71959;SDS011;59832;51.146;14.024;2023-07-09T04:24:30;7.72;;;5.50;;
71959;SDS011;59832;51.146;14.024;2023-07-09T04:26:57;5.88;;;5.25;;
71959;SDS011;59832;51.146;14.024;2023-07-09T04:29:24;7.32;;;5.78;;
71959;SDS011;59832;51.146;14.024;2023-07-09T04:31:51;10.90;;;5.53;;
71959;SDS011;59832;51.146;14.024;2023-07-09T04:34:17;11.18;;;5.30;;
71959;SDS011;59832;51.146;14.024;2023-07-09T04:36:44;11.85;;;5.60;;
71959;SDS011;59832;51.146;14.024;2023-07-09T04:39:10;11.70;;;5.50;;
71959;SDS011;59832;51.146;14.024;2023-07-09T04:41:37;8.33;;;5.33;;
71959;SDS011;59832;51.146;14.024;2023-07-09T04:44:03;9.77;;;5.60;;
71959;SDS011;59832;51.146;14.024;2023-07-09T04:46:30;7.70;;;5.53;;
71959;SDS011;59832;51.146;14.024;2023-07-09T04:48:56;8.77;;;5.27;;
71959;SDS011;59832;51.146;14.024;2023-07-09T04:51:23;5.40;;;4.97;;
71959;SDS011;59832;51.146;14.024;2023-07-09T04:53:49;5.18;;;4.78;;
71959;SDS011;59832;51.146;14.024;2023-07-09T04:56:18;4.95;;;4.55;;
71959;SDS011;59832;51.146;14.024;2023-07-09T04:58:44;4.88;;;4.47;;
71959;SDS011;59832;51.146;14.024;2023-07-09T05:01:11;6.23;;;4.90;;
71959;SDS011;59832;51.146;14.024;2023-07-09T05:03:37;7.03;;;4.55;;
71959;SDS011;59832;51.146;14.024;2023-07-09T05:06:05;5.18;;;4.68;;
71959;SDS011;59832;51.146;14.024;2023-07-09T05:08:31;4.82;;;4.43;;
71959;SDS011;59832;51.146;14.024;2023-07-09T05:10:58;4.93;;;4.53;;
71959;SDS011;59832;51.146;14.024;2023-07-09T05:13:24;6.18;;;4.53;;
71959;SDS011;59832;51.146;14.024;2023-07-09T05:15:51;4.95;;;4.45;;
71959;SDS011;59832;51.146;14.024;2023-07-09T05:18:18;6.20;;;4.68;;
71959;SDS011;59832;51.146;14.024;2023-07-09T05:20:45;5.10;;;4.10;;
71959;SDS011;59832;51.146;14.024;2023-07-09T05:23:12;4.70;;;4.05;;
71959;SDS011;59832;51.146;14.024;2023-07-09T05:25:39;4.60;;;4.20;;
71959;SDS011;59832;51.146;14.024;2023-07-09T05:28:06;4.72;;;4.35;;
71959;SDS011;59832;51.146;14.024;2023-07-09T05:30:32;4.20;;;3.83;;
71959;SDS011;59832;51.146;14.024;2023-07-09T05:32:59;4.50;;;3.63;;
71959;SDS011;59832;51.146;14.024;2023-07-09T05:35:26;4.18;;;3.72;;
71959;SDS011;59832;51.146;14.024;2023-07-09T05:37:53;3.67;;;3.38;;
71959;SDS011;59832;51.146;14.024;2023-07-09T05:40:20;4.00;;;3.60;;
71959;SDS011;59832;51.146;14.024;2023-07-09T05:42:48;5.88;;;3.20;;
71959;SDS011;59832;51.146;14.024;2023-07-09T05:45:15;5.20;;;3.88;;
71959;SDS011;59832;51.146;14.024;2023-07-09T05:47:41;3.80;;;3.50;;
71959;SDS011;59832;51.146;14.024;2023-07-09T05:50:09;4.10;;;3.70;;
71959;SDS011;59832;51.146;14.024;2023-07-09T05:52:36;4.03;;;3.63;;
71959;SDS011;59832;51.146;14.024;2023-07-09T05:55:02;4.03;;;3.70;;
71959;SDS011;59832;51.146;14.024;2023-07-09T05:57:29;3.88;;;3.58;;
71959;SDS011;59832;51.146;14.024;2023-07-09T05:59:56;3.80;;;3.50;;
71959;SDS011;59832;51.146;14.024;2023-07-09T06:02:23;4.82;;;3.58;;
71959;SDS011;59832;51.146;14.024;2023-07-09T06:04:49;4.28;;;3.63;;
71959;SDS011;59832;51.146;14.024;2023-07-09T06:07:16;4.10;;;3.80;;
71959;SDS011;59832;51.146;14.024;2023-07-09T06:09:44;3.42;;;3.13;;
71959;SDS011;59832;51.146;14.024;2023-07-09T06:12:14;3.97;;;3.63;;
71959;SDS011;59832;51.146;14.024;2023-07-09T06:14:40;4.80;;;3.83;;
71959;SDS011;59832;51.146;14.024;2023-07-09T06:17:07;4.03;;;3.72;;
71959;SDS011;59832;51.146;14.024;2023-07-09T06:19:33;4.10;;;3.80;;
71959;SDS011;59832;51.146;14.024;2023-07-09T06:22:00;3.83;;;3.53;;
71959;SDS011;59832;51.146;14.024;2023-07-09T06:24:26;4.10;;;3.80;;
71959;SDS011;59832;51.146;14.024;2023-07-09T06:26:53;3.63;;;3.33;;
71959;SDS011;59832;51.146;14.024;2023-07-09T06:29:19;3.55;;;3.25;;
71959;SDS011;59832;51.146;14.024;2023-07-09T06:31:46;3.70;;;3.40;;
71959;SDS011;59832;51.146;14.024;2023-07-09T06:34:12;3.22;;;3.03;;
71959;SDS011;59832;51.146;14.024;2023-07-09T06:36:39;3.90;;;3.50;;
71959;SDS011;59832;51.146;14.024;2023-07-09T06:39:08;3.78;;;3.47;;
71959;SDS011;59832;51.146;14.024;2023-07-09T06:41:35;3.22;;;2.90;;
71959;SDS011;59832;51.146;14.024;2023-07-09T06:44:06;3.45;;;3.25;;
71959;SDS011;59832;51.146;14.024;2023-07-09T06:46:33;3.55;;;3.00;;
71959;SDS011;59832;51.146;14.024;2023-07-09T06:49:00;3.70;;;3.38;;
71959;SDS011;59832;51.146;14.024;2023-07-09T06:51:27;5.47;;;3.10;;
71959;SDS011;59832;51.146;14.024;2023-07-09T06:53:54;3.88;;;3.45;;
71959;SDS011;59832;51.146;14.024;2023-07-09T06:56:20;4.00;;;3.05;;
71959;SDS011;59832;51.146;14.024;2023-07-09T06:58:46;3.30;;;3.00;;
71959;SDS011;59832;51.146;14.024;2023-07-09T07:01:13;6.13;;;3.40;;
71959;SDS011;59832;51.146;14.024;2023-07-09T07:03:39;5.03;;;3.17;;
71959;SDS011;59832;51.146;14.024;2023-07-09T07:06:06;3.63;;;3.33;;
71959;SDS011;59832;51.146;14.024;2023-07-09T07:08:33;3.17;;;2.97;;
71959;SDS011;59832;51.146;14.024;2023-07-09T07:11:01;3.55;;;3.25;;
71959;SDS011;59832;51.146;14.024;2023-07-09T07:13:32;3.25;;;2.92;;
71959;SDS011;59832;51.146;14.024;2023-07-09T07:16:01;3.55;;;3.10;;
71959;SDS011;59832;51.146;14.024;2023-07-09T07:18:29;5.10;;;3.22;;
71959;SDS011;59832;51.146;14.024;2023-07-09T07:20:56;3.45;;;3.15;;
71959;SDS011;59832;51.146;14.024;2023-07-09T07:25:50;3.60;;;3.20;;
71959;SDS011;59832;51.146;14.024;2023-07-09T07:28:17;3.38;;;3.08;;
71959;SDS011;59832;51.146;14.024;2023-07-09T07:30:44;3.72;;;3.42;;
71959;SDS011;59832;51.146;14.024;2023-07-09T07:33:10;2.90;;;2.70;;
71959;SDS011;59832;51.146;14.024;2023-07-09T07:35:39;3.30;;;3.00;;
71959;SDS011;59832;51.146;14.024;2023-07-09T07:38:25;6.82;;;2.80;;
71959;SDS011;59832;51.146;14.024;2023-07-09T07:43:19;4.13;;;2.90;;
71959;SDS011;59832;51.146;14.024;2023-07-09T07:45:47;3.20;;;2.90;;
71959;SDS011;59832;51.146;14.024;2023-07-09T07:48:14;3.15;;;2.95;;
71959;SDS011;59832;51.146;14.024;2023-07-09T07:53:07;3.03;;;2.83;;
71959;SDS011;59832;51.146;14.024;2023-07-09T07:55:35;3.65;;;3.25;;
71959;SDS011;59832;51.146;14.024;2023-07-09T07:58:03;3.40;;;3.13;;
71959;SDS011;59832;51.146;14.024;2023-07-09T08:00:30;4.60;;;4.00;;
71959;SDS011;59832;51.146;14.024;2023-07-09T08:02:57;4.50;;;4.10;;
71959;SDS011;59832;51.146;14.024;2023-07-09T08:05:24;4.32;;;3.92;;
71959;SDS011;59832;51.146;14.024;2023-07-09T08:07:51;6.35;;;4.00;;
71959;SDS011;59832;51.146;14.024;2023-07-09T08:10:18;4.32;;;3.83;;
71959;SDS011;59832;51.146;14.024;2023-07-09T08:12:44;3.72;;;3.42;;
71959;SDS011;59832;51.146;14.024;2023-07-09T08:15:11;3.85;;;3.50;;
71959;SDS011;59832;51.146;14.024;2023-07-09T08:20:05;3.80;;;3.40;;
71959;SDS011;59832;51.146;14.024;2023-07-09T08:22:32;4.80;;;3.50;;
71959;SDS011;59832;51.146;14.024;2023-07-09T08:27:25;3.10;;;2.90;;
71959;SDS011;59832;51.146;14.024;2023-07-09T08:29:51;4.05;;;2.95;;
71959;SDS011;59832;51.146;14.024;2023-07-09T08:32:18;4.38;;;2.95;;
71959;SDS011;59832;51.146;14.024;2023-07-09T08:34:44;3.38;;;3.08;;
71959;SDS011;59832;51.146;14.024;2023-07-09T08:37:31;3.20;;;2.90;;
71959;SDS011;59832;51.146;14.024;2023-07-09T08:39:57;3.58;;;3.10;;
71959;SDS011;59832;51.146;14.024;2023-07-09T08:42:39;3.30;;;3.00;;
71959;SDS011;59832;51.146;14.024;2023-07-09T08:45:29;3.10;;;2.90;;
71959;SDS011;59832;51.146;14.024;2023-07-09T08:48:30;4.07;;;2.78;;
71959;SDS011;59832;51.146;14.024;2023-07-09T08:51:04;3.38;;;2.88;;
71959;SDS011;59832;51.146;14.024;2023-07-09T08:53:50;3.20;;;3.00;;
71959;SDS011;59832;51.146;14.024;2023-07-09T08:56:19;3.20;;;2.90;;
71959;SDS011;59832;51.146;14.024;2023-07-09T08:58:46;3.60;;;2.78;;
71959;SDS011;59832;51.146;14.024;2023-07-09T09:01:20;2.70;;;2.50;;
71959;SDS011;59832;51.146;14.024;2023-07-09T09:03:50;4.53;;;3.25;;
71959;SDS011;59832;51.146;14.024;2023-07-09T09:06:24;4.30;;;2.90;;
71959;SDS011;59832;51.146;14.024;2023-07-09T09:14:48;3.03;;;2.70;;
71959;SDS011;59832;51.146;14.024;2023-07-09T09:17:23;2.95;;;2.75;;
71959;SDS011;59832;51.146;14.024;2023-07-09T09:19:56;3.08;;;2.72;;
71959;SDS011;59832;51.146;14.024;2023-07-09T09:25:40;2.80;;;2.60;;
71959;SDS011;59832;51.146;14.024;2023-07-09T09:28:08;3.65;;;2.70;;
71959;SDS011;59832;51.146;14.024;2023-07-09T09:30:35;3.20;;;3.00;;
71959;SDS011;59832;51.146;14.024;2023-07-09T09:33:05;3.13;;;2.90;;
71959;SDS011;59832;51.146;14.024;2023-07-09T09:35:41;3.00;;;2.80;;
71959;SDS011;59832;51.146;14.024;2023-07-09T09:38:19;4.20;;;3.17;;
71959;SDS011;59832;51.146;14.024;2023-07-09T09:40:47;3.85;;;2.88;;
71959;SDS011;59832;51.146;14.024;2023-07-09T09:43:16;3.38;;;3.08;;
71959;SDS011;59832;51.146;14.024;2023-07-09T09:45:47;3.13;;;2.92;;
71959;SDS011;59832;51.146;14.024;2023-07-09T09:50:53;3.15;;;2.83;;
71959;SDS011;59832;51.146;14.024;2023-07-09T09:53:22;3.33;;;2.88;;
71959;SDS011;59832;51.146;14.024;2023-07-09T09:55:51;3.10;;;2.83;;
71959;SDS011;59832;51.146;14.024;2023-07-09T09:58:19;3.17;;;2.92;;
71959;SDS011;59832;51.146;14.024;2023-07-09T10:00:52;2.85;;;2.65;;
71959;SDS011;59832;51.146;14.024;2023-07-09T10:03:21;2.88;;;2.55;;
71959;SDS011;59832;51.146;14.024;2023-07-09T10:05:59;3.38;;;3.08;;
71959;SDS011;59832;51.146;14.024;2023-07-09T10:08:40;5.68;;;3.22;;
71959;SDS011;59832;51.146;14.024;2023-07-09T10:11:19;3.10;;;2.90;;
71959;SDS011;59832;51.146;14.024;2023-07-09T10:13:53;2.40;;;2.20;;
71959;SDS011;59832;51.146;14.024;2023-07-09T10:16:27;3.15;;;2.80;;
71959;SDS011;59832;51.146;14.024;2023-07-09T10:19:09;2.70;;;2.50;;
71959;SDS011;59832;51.146;14.024;2023-07-09T10:21:51;5.57;;;2.63;;
71959;SDS011;59832;51.146;14.024;2023-07-09T10:24:28;4.22;;;3.63;;
71959;SDS011;59832;51.146;14.024;2023-07-09T10:32:24;3.20;;;2.90;;
71959;SDS011;59832;51.146;14.024;2023-07-09T10:35:54;2.88;;;2.67;;
71959;SDS011;59832;51.146;14.024;2023-07-09T10:41:11;3.28;;;2.97;;
71959;SDS011;59832;51.146;14.024;2023-07-09T10:46:17;3.20;;;2.90;;
71959;SDS011;59832;51.146;14.024;2023-07-09T10:48:48;3.25;;;2.83;;
71959;SDS011;59832;51.146;14.024;2023-07-09T10:53:55;3.42;;;3.13;;
71959;SDS011;59832;51.146;14.024;2023-07-09T10:56:27;3.20;;;3.00;;
71959;SDS011;59832;51.146;14.024;2023-07-09T11:01:29;3.08;;;2.88;;
71959;SDS011;59832;51.146;14.024;2023-07-09T11:07:02;6.07;;;2.85;;
71959;SDS011;59832;51.146;14.024;2023-07-09T11:09:36;3.40;;;3.10;;
71959;SDS011;59832;51.146;14.024;2023-07-09T11:12:09;5.88;;;3.05;;
71959;SDS011;59832;51.146;14.024;2023-07-09T11:14:56;3.05;;;2.83;;
71959;SDS011;59832;51.146;14.024;2023-07-09T11:17:31;3.15;;;2.85;;
71959;SDS011;59832;51.146;14.024;2023-07-09T11:20:00;3.38;;;3.08;;
71959;SDS011;59832;51.146;14.024;2023-07-09T11:22:36;2.92;;;2.72;;
71959;SDS011;59832;51.146;14.024;2023-07-09T11:25:08;3.25;;;2.88;;
71959;SDS011;59832;51.146;14.024;2023-07-09T11:27:49;3.42;;;2.95;;
71959;SDS011;59832;51.146;14.024;2023-07-09T11:30:25;3.50;;;3.25;;
71959;SDS011;59832;51.146;14.024;2023-07-09T11:32:54;3.17;;;2.92;;
71959;SDS011;59832;51.146;14.024;2023-07-09T11:38:19;3.40;;;3.10;;
71959;SDS011;59832;51.146;14.024;2023-07-09T11:40:52;2.83;;;2.63;;
71959;SDS011;59832;51.146;14.024;2023-07-09T11:43:28;3.92;;;3.17;;
71959;SDS011;59832;51.146;14.024;2023-07-09T11:45:58;3.78;;;3.20;;
71959;SDS011;59832;51.146;14.024;2023-07-09T11:48:39;3.25;;;2.90;;
71959;SDS011;59832;51.146;14.024;2023-07-09T11:51:16;5.72;;;3.13;;
71959;SDS011;59832;51.146;14.024;2023-07-09T11:53:47;5.00;;;3.10;;
71959;SDS011;59832;51.146;14.024;2023-07-09T11:56:21;3.40;;;3.10;;
71959;SDS011;59832;51.146;14.024;2023-07-09T11:58:50;5.70;;;3.20;;
71959;SDS011;59832;51.146;14.024;2023-07-09T12:01:26;2.92;;;2.72;;
71959;SDS011;59832;51.146;14.024;2023-07-09T12:03:57;3.17;;;2.88;;
71959;SDS011;59832;51.146;14.024;2023-07-09T12:06:24;3.38;;;2.90;;
71959;SDS011;59832;51.146;14.024;2023-07-09T12:08:56;3.42;;;3.13;;
71959;SDS011;59832;51.146;14.024;2023-07-09T12:11:24;4.03;;;3.00;;
71959;SDS011;59832;51.146;14.024;2023-07-09T12:14:02;3.47;;;3.03;;
71959;SDS011;59832;51.146;14.024;2023-07-09T12:16:33;3.40;;;3.10;;
71959;SDS011;59832;51.146;14.024;2023-07-09T12:19:02;3.80;;;3.50;;
71959;SDS011;59832;51.146;14.024;2023-07-09T12:21:28;3.38;;;3.08;;
71959;SDS011;59832;51.146;14.024;2023-07-09T12:23:57;3.10;;;2.80;;
71959;SDS011;59832;51.146;14.024;2023-07-09T12:26:24;3.25;;;2.95;;
71959;SDS011;59832;51.146;14.024;2023-07-09T12:28:54;2.90;;;2.70;;
71959;SDS011;59832;51.146;14.024;2023-07-09T12:31:30;3.05;;;2.85;;
71959;SDS011;59832;51.146;14.024;2023-07-09T12:33:57;3.45;;;2.97;;
71959;SDS011;59832;51.146;14.024;2023-07-09T12:36:26;3.47;;;3.15;;
71959;SDS011;59832;51.146;14.024;2023-07-09T12:38:55;3.40;;;3.10;;
71959;SDS011;59832;51.146;14.024;2023-07-09T12:41:27;3.42;;;3.13;;
71959;SDS011;59832;51.146;14.024;2023-07-09T12:43:55;3.00;;;2.80;;
71959;SDS011;59832;51.146;14.024;2023-07-09T12:46:22;3.25;;;2.90;;
71959;SDS011;59832;51.146;14.024;2023-07-09T12:48:50;3.42;;;3.10;;
71959;SDS011;59832;51.146;14.024;2023-07-09T12:51:20;4.53;;;2.75;;
71959;SDS011;59832;51.146;14.024;2023-07-09T12:54:00;3.17;;;2.97;;
71959;SDS011;59832;51.146;14.024;2023-07-09T12:56:36;4.95;;;3.05;;
71959;SDS011;59832;51.146;14.024;2023-07-09T12:59:07;5.45;;;3.00;;
71959;SDS011;59832;51.146;14.024;2023-07-09T13:01:46;3.30;;;3.10;;
71959;SDS011;59832;51.146;14.024;2023-07-09T13:04:43;3.33;;;3.13;;
71959;SDS011;59832;51.146;14.024;2023-07-09T13:09:52;3.80;;;3.00;;
71959;SDS011;59832;51.146;14.024;2023-07-09T13:12:20;4.50;;;2.97;;
71959;SDS011;59832;51.146;14.024;2023-07-09T13:14:54;3.92;;;3.10;;
71959;SDS011;59832;51.146;14.024;2023-07-09T13:17:27;3.25;;;2.95;;
71959;SDS011;59832;51.146;14.024;2023-07-09T13:19:56;4.13;;;3.25;;
71959;SDS011;59832;51.146;14.024;2023-07-09T13:22:23;3.45;;;3.15;;
71959;SDS011;59832;51.146;14.024;2023-07-09T13:24:51;3.15;;;2.95;;
71959;SDS011;59832;51.146;14.024;2023-07-09T13:27:17;3.53;;;3.05;;
71959;SDS011;59832;51.146;14.024;2023-07-09T13:29:44;3.55;;;3.03;;
71959;SDS011;59832;51.146;14.024;2023-07-09T13:32:11;3.38;;;2.88;;
71959;SDS011;59832;51.146;14.024;2023-07-09T13:34:40;3.53;;;3.00;;
71959;SDS011;59832;51.146;14.024;2023-07-09T13:37:13;3.33;;;3.03;;
71959;SDS011;59832;51.146;14.024;2023-07-09T13:39:41;4.07;;;2.97;;
71959;SDS011;59832;51.146;14.024;2023-07-09T13:42:13;3.13;;;2.83;;
71959;SDS011;59832;51.146;14.024;2023-07-09T13:44:42;3.50;;;3.20;;
71959;SDS011;59832;51.146;14.024;2023-07-09T13:47:16;5.82;;;3.08;;
71959;SDS011;59832;51.146;14.024;2023-07-09T13:49:45;7.05;;;3.30;;
71959;SDS011;59832;51.146;14.024;2023-07-09T13:52:17;3.00;;;2.78;;
71959;SDS011;59832;51.146;14.024;2023-07-09T13:54:46;3.00;;;2.80;;
71959;SDS011;59832;51.146;14.024;2023-07-09T13:57:17;2.95;;;2.75;;
71959;SDS011;59832;51.146;14.024;2023-07-09T13:59:45;3.13;;;2.92;;
71959;SDS011;59832;51.146;14.024;2023-07-09T14:04:46;3.55;;;2.90;;
71959;SDS011;59832;51.146;14.024;2023-07-09T14:09:53;3.38;;;3.08;;
71959;SDS011;59832;51.146;14.024;2023-07-09T14:12:20;3.08;;;2.88;;
71959;SDS011;59832;51.146;14.024;2023-07-09T14:14:47;3.28;;;2.95;;
71959;SDS011;59832;51.146;14.024;2023-07-09T14:17:21;3.35;;;3.05;;
71959;SDS011;59832;51.146;14.024;2023-07-09T14:19:49;3.08;;;2.88;;
71959;SDS011;59832;51.146;14.024;2023-07-09T14:22:21;3.95;;;3.08;;
71959;SDS011;59832;51.146;14.024;2023-07-09T14:24:51;3.40;;;2.90;;
71959;SDS011;59832;51.146;14.024;2023-07-09T14:29:44;4.45;;;3.03;;
71959;SDS011;59832;51.146;14.024;2023-07-09T14:32:21;3.97;;;2.83;;
71959;SDS011;59832;51.146;14.024;2023-07-09T14:34:57;4.38;;;2.90;;
71959;SDS011;59832;51.146;14.024;2023-07-09T14:37:24;3.38;;;3.08;;
71959;SDS011;59832;51.146;14.024;2023-07-09T14:42:16;3.30;;;3.00;;
71959;SDS011;59832;51.146;14.024;2023-07-09T14:47:12;3.45;;;2.70;;
71959;SDS011;59832;51.146;14.024;2023-07-09T14:49:42;5.82;;;2.97;;
71959;SDS011;59832;51.146;14.024;2023-07-09T14:54:37;3.38;;;2.97;;
71959;SDS011;59832;51.146;14.024;2023-07-09T14:57:04;3.28;;;2.97;;
71959;SDS011;59832;51.146;14.024;2023-07-09T14:59:43;2.80;;;2.60;;
71959;SDS011;59832;51.146;14.024;2023-07-09T15:04:48;4.95;;;3.75;;
71959;SDS011;59832;51.146;14.024;2023-07-09T15:07:15;3.60;;;3.30;;
71959;SDS011;59832;51.146;14.024;2023-07-09T15:09:42;3.42;;;3.13;;
71959;SDS011;59832;51.146;14.024;2023-07-09T15:12:16;5.97;;;3.03;;
71959;SDS011;59832;51.146;14.024;2023-07-09T15:14:45;3.47;;;3.15;;
71959;SDS011;59832;51.146;14.024;2023-07-09T15:17:12;4.55;;;3.20;;
71959;SDS011;59832;51.146;14.024;2023-07-09T15:19:39;3.28;;;2.97;;
71959;SDS011;59832;51.146;14.024;2023-07-09T15:22:07;3.40;;;3.08;;
71959;SDS011;59832;51.146;14.024;2023-07-09T15:24:45;3.10;;;2.90;;
71959;SDS011;59832;51.146;14.024;2023-07-09T15:27:12;3.60;;;3.28;;
71959;SDS011;59832;51.146;14.024;2023-07-09T15:29:38;3.40;;;3.10;;
71959;SDS011;59832;51.146;14.024;2023-07-09T15:34:33;3.30;;;3.00;;
71959;SDS011;59832;51.146;14.024;2023-07-09T15:36:59;3.30;;;3.08;;
71959;SDS011;59832;51.146;14.024;2023-07-09T15:39:25;3.67;;;3.38;;
71959;SDS011;59832;51.146;14.024;2023-07-09T15:41:53;4.97;;;2.78;;
71959;SDS011;59832;51.146;14.024;2023-07-09T15:44:20;3.42;;;3.13;;
71959;SDS011;59832;51.146;14.024;2023-07-09T15:46:50;5.53;;;3.42;;
71959;SDS011;59832;51.146;14.024;2023-07-09T15:49:20;3.67;;;3.03;;
71959;SDS011;59832;51.146;14.024;2023-07-09T15:51:48;4.85;;;3.60;;
71959;SDS011;59832;51.146;14.024;2023-07-09T15:56:43;4.20;;;3.10;;
71959;SDS011;59832;51.146;14.024;2023-07-09T15:59:24;3.90;;;3.20;;
71959;SDS011;59832;51.146;14.024;2023-07-09T16:01:52;3.05;;;2.80;;
71959;SDS011;59832;51.146;14.024;2023-07-09T16:04:19;3.10;;;2.80;;
71959;SDS011;59832;51.146;14.024;2023-07-09T16:06:46;5.45;;;3.00;;
71959;SDS011;59832;51.146;14.024;2023-07-09T16:09:13;3.33;;;3.03;;
71959;SDS011;59832;51.146;14.024;2023-07-09T16:14:16;3.60;;;3.22;;
71959;SDS011;59832;51.146;14.024;2023-07-09T16:16:46;3.28;;;2.97;;
71959;SDS011;59832;51.146;14.024;2023-07-09T16:19:20;3.90;;;3.50;;
71959;SDS011;59832;51.146;14.024;2023-07-09T16:21:50;3.25;;;2.92;;
71959;SDS011;59832;51.146;14.024;2023-07-09T16:24:29;3.95;;;3.28;;
71959;SDS011;59832;51.146;14.024;2023-07-09T16:26:58;7.10;;;3.40;;
71959;SDS011;59832;51.146;14.024;2023-07-09T16:29:26;3.53;;;3.00;;
71959;SDS011;59832;51.146;14.024;2023-07-09T16:31:58;5.10;;;3.63;;
71959;SDS011;59832;51.146;14.024;2023-07-09T16:34:27;3.20;;;2.90;;
71959;SDS011;59832;51.146;14.024;2023-07-09T16:36:55;4.60;;;3.25;;
71959;SDS011;59832;51.146;14.024;2023-07-09T16:39:26;3.67;;;3.30;;
71959;SDS011;59832;51.146;14.024;2023-07-09T16:41:55;4.00;;;3.30;;
71959;SDS011;59832;51.146;14.024;2023-07-09T16:44:23;3.80;;;3.20;;
71959;SDS011;59832;51.146;14.024;2023-07-09T16:46:51;4.05;;;3.47;;
71959;SDS011;59832;51.146;14.024;2023-07-09T16:49:40;6.85;;;3.25;;
71959;SDS011;59832;51.146;14.024;2023-07-09T16:52:14;5.47;;;3.25;;
71959;SDS011;59832;51.146;14.024;2023-07-09T16:54:53;3.88;;;3.00;;
71959;SDS011;59832;51.146;14.024;2023-07-09T16:57:20;3.40;;;3.20;;
71959;SDS011;59832;51.146;14.024;2023-07-09T16:59:48;4.75;;;3.63;;
71959;SDS011;59832;51.146;14.024;2023-07-09T17:02:21;4.82;;;3.22;;
71959;SDS011;59832;51.146;14.024;2023-07-09T17:04:53;3.85;;;3.55;;
71959;SDS011;59832;51.146;14.024;2023-07-09T17:07:20;4.30;;;3.90;;
71959;SDS011;59832;51.146;14.024;2023-07-09T17:09:47;5.15;;;3.78;;
71959;SDS011;59832;51.146;14.024;2023-07-09T17:12:14;3.90;;;3.50;;
71959;SDS011;59832;51.146;14.024;2023-07-09T17:14:41;5.43;;;3.60;;
71959;SDS011;59832;51.146;14.024;2023-07-09T17:17:12;4.63;;;3.30;;
71959;SDS011;59832;51.146;14.024;2023-07-09T17:19:42;4.60;;;3.78;;
71959;SDS011;59832;51.146;14.024;2023-07-09T17:22:31;3.95;;;3.60;;
71959;SDS011;59832;51.146;14.024;2023-07-09T17:25:01;4.30;;;3.58;;
71959;SDS011;59832;51.146;14.024;2023-07-09T17:27:39;3.55;;;3.25;;
71959;SDS011;59832;51.146;14.024;2023-07-09T17:32:40;4.05;;;3.72;;
71959;SDS011;59832;51.146;14.024;2023-07-09T17:35:07;4.28;;;3.20;;
71959;SDS011;59832;51.146;14.024;2023-07-09T17:37:34;3.78;;;3.47;;
71959;SDS011;59832;51.146;14.024;2023-07-09T17:40:01;3.78;;;3.47;;
71959;SDS011;59832;51.146;14.024;2023-07-09T17:44:54;7.07;;;3.60;;
71959;SDS011;59832;51.146;14.024;2023-07-09T17:49:47;4.13;;;3.72;;
71959;SDS011;59832;51.146;14.024;2023-07-09T17:54:46;3.83;;;3.50;;
71959;SDS011;59832;51.146;14.024;2023-07-09T17:57:24;4.90;;;3.58;;
71959;SDS011;59832;51.146;14.024;2023-07-09T17:59:58;3.92;;;3.35;;
71959;SDS011;59832;51.146;14.024;2023-07-09T18:02:26;5.10;;;3.22;;
71959;SDS011;59832;51.146;14.024;2023-07-09T18:04:54;6.50;;;3.30;;
71959;SDS011;59832;51.146;14.024;2023-07-09T18:07:23;4.85;;;3.50;;
71959;SDS011;59832;51.146;14.024;2023-07-09T18:09:57;4.10;;;3.70;;
71959;SDS011;59832;51.146;14.024;2023-07-09T18:12:25;3.92;;;3.15;;
71959;SDS011;59832;51.146;14.024;2023-07-09T18:14:54;3.60;;;3.20;;
71959;SDS011;59832;51.146;14.024;2023-07-09T18:17:23;5.07;;;3.30;;
71959;SDS011;59832;51.146;14.024;2023-07-09T18:19:59;4.07;;;3.67;;
71959;SDS011;59832;51.146;14.024;2023-07-09T18:22:26;4.00;;;3.70;;
71959;SDS011;59832;51.146;14.024;2023-07-09T18:24:57;5.95;;;3.20;;
71959;SDS011;59832;51.146;14.024;2023-07-09T18:27:25;4.57;;;3.35;;
71959;SDS011;59832;51.146;14.024;2023-07-09T18:29:54;5.10;;;3.80;;
71959;SDS011;59832;51.146;14.024;2023-07-09T18:32:23;4.05;;;3.50;;
71959;SDS011;59832;51.146;14.024;2023-07-09T18:34:54;4.18;;;3.78;;
71959;SDS011;59832;51.146;14.024;2023-07-09T18:37:23;4.03;;;3.72;;
71959;SDS011;59832;51.146;14.024;2023-07-09T18:39:50;4.50;;;4.10;;
71959;SDS011;59832;51.146;14.024;2023-07-09T18:44:44;5.60;;;3.65;;
71959;SDS011;59832;51.146;14.024;2023-07-09T18:47:11;4.13;;;3.72;;
71959;SDS011;59832;51.146;14.024;2023-07-09T18:49:39;4.00;;;3.70;;
71959;SDS011;59832;51.146;14.024;2023-07-09T18:52:13;4.50;;;3.97;;
71959;SDS011;59832;51.146;14.024;2023-07-09T18:54:41;4.80;;;4.05;;
71959;SDS011;59832;51.146;14.024;2023-07-09T18:57:12;4.63;;;4.22;;
71959;SDS011;59832;51.146;14.024;2023-07-09T18:59:39;5.47;;;4.10;;
71959;SDS011;59832;51.146;14.024;2023-07-09T19:02:16;5.95;;;4.13;;
71959;SDS011;59832;51.146;14.024;2023-07-09T19:04:45;8.20;;;4.15;;
71959;SDS011;59832;51.146;14.024;2023-07-09T19:07:13;4.78;;;4.38;;
71959;SDS011;59832;51.146;14.024;2023-07-09T19:09:41;4.20;;;3.90;;
71959;SDS011;59832;51.146;14.024;2023-07-09T19:12:08;6.43;;;4.30;;
71959;SDS011;59832;51.146;14.024;2023-07-09T19:14:35;4.40;;;4.00;;
71959;SDS011;59832;51.146;14.024;2023-07-09T19:17:06;4.70;;;4.30;;
71959;SDS011;59832;51.146;14.024;2023-07-09T19:19:38;4.40;;;4.00;;
71959;SDS011;59832;51.146;14.024;2023-07-09T19:22:05;6.20;;;4.30;;
71959;SDS011;59832;51.146;14.024;2023-07-09T19:24:35;5.75;;;4.03;;
71959;SDS011;59832;51.146;14.024;2023-07-09T19:27:01;5.32;;;3.85;;
71959;SDS011;59832;51.146;14.024;2023-07-09T19:29:28;5.05;;;4.55;;
71959;SDS011;59832;51.146;14.024;2023-07-09T19:31:55;4.65;;;4.25;;
71959;SDS011;59832;51.146;14.024;2023-07-09T19:34:31;4.78;;;4.20;;
71959;SDS011;59832;51.146;14.024;2023-07-09T19:37:02;4.60;;;4.20;;
71959;SDS011;59832;51.146;14.024;2023-07-09T19:39:34;5.20;;;4.70;;
71959;SDS011;59832;51.146;14.024;2023-07-09T19:42:23;6.35;;;4.75;;
71959;SDS011;59832;51.146;14.024;2023-07-09T19:44:50;4.80;;;4.40;;
71959;SDS011;59832;51.146;14.024;2023-07-09T19:47:21;4.70;;;4.30;;
71959;SDS011;59832;51.146;14.024;2023-07-09T19:49:50;4.60;;;4.20;;
71959;SDS011;59832;51.146;14.024;2023-07-09T19:52:18;6.07;;;4.32;;
71959;SDS011;59832;51.146;14.024;2023-07-09T19:54:45;6.20;;;4.05;;
71959;SDS011;59832;51.146;14.024;2023-07-09T19:57:13;4.90;;;3.97;;
71959;SDS011;59832;51.146;14.024;2023-07-09T19:59:40;4.78;;;4.10;;
